createdAt,value
2023-05-16T00:01:05.386Z,19.22
2023-05-16T00:06:07.987Z,19.20
2023-05-16T00:11:10.541Z,19.20
2023-05-16T00:16:14.599Z,19.26
2023-05-16T00:21:17.285Z,19.35
2023-05-16T00:26:20.294Z,19.38
2023-05-16T00:31:23.241Z,19.27
2023-05-16T00:36:25.965Z,19.27
2023-05-16T00:41:28.604Z,19.22
2023-05-16T00:46:31.159Z,19.18
2023-05-16T00:51:34.093Z,19.11
2023-05-16T00:56:36.934Z,19.04
2023-05-16T01:01:41.435Z,18.93
2023-05-16T01:06:44.739Z,18.87
2023-05-16T01:11:55.925Z,18.85
2023-05-16T01:17:12.632Z,18.82
2023-05-16T01:22:37.418Z,18.78
2023-05-16T01:27:40.869Z,18.58
2023-05-16T01:32:43.776Z,17.04
2023-05-16T01:38:00.887Z,17.22
2023-05-16T01:43:08.619Z,17.85
2023-05-16T01:48:17.974Z,18.04
2023-05-16T01:53:29.590Z,18.18
2023-05-16T01:58:33.898Z,18.28
2023-05-16T02:03:36.448Z,18.38
2023-05-16T02:08:39.070Z,18.43
2023-05-16T02:13:42.603Z,18.46
2023-05-16T02:18:45.837Z,18.54
2023-05-16T02:23:48.464Z,18.57
2023-05-16T02:28:51.203Z,18.53
2023-05-16T02:33:53.752Z,18.49
2023-05-16T02:38:56.297Z,18.44
2023-05-16T02:43:58.798Z,18.48
2023-05-16T02:49:01.884Z,18.46
2023-05-16T02:54:04.687Z,18.48
2023-05-16T02:59:07.565Z,18.53
2023-05-16T03:04:10.191Z,18.56
2023-05-16T03:09:12.752Z,18.56
2023-05-16T03:14:15.263Z,18.56
2023-05-16T03:19:17.860Z,18.57
2023-05-16T03:24:22.882Z,18.63
2023-05-16T03:29:27.104Z,18.23
2023-05-16T03:34:29.647Z,16.48
2023-05-16T03:39:32.148Z,17.03
2023-05-16T03:44:34.646Z,17.74
2023-05-16T03:49:37.422Z,18.05
2023-05-16T03:54:40.021Z,18.30
2023-05-16T03:59:42.838Z,18.52
2023-05-16T04:04:45.832Z,18.61
2023-05-16T04:09:48.440Z,18.66
2023-05-16T04:14:50.978Z,18.59
2023-05-16T04:19:53.517Z,17.48
2023-05-16T04:24:57.053Z,16.34
2023-05-16T04:29:59.861Z,17.23
2023-05-16T04:35:02.851Z,17.74
2023-05-16T04:40:07.697Z,17.92
2023-05-16T04:45:14.597Z,18.00
2023-05-16T04:50:18.131Z,18.05
2023-05-16T04:55:20.844Z,18.02
2023-05-16T05:00:23.593Z,18.07
2023-05-16T05:05:26.364Z,18.00
2023-05-16T05:10:31.088Z,17.79
2023-05-16T05:15:33.710Z,17.73
2023-05-16T05:20:36.272Z,17.81
2023-05-16T05:25:39.415Z,17.77
2023-05-16T05:30:43.184Z,17.70
2023-05-16T05:35:46.000Z,17.74
2023-05-16T05:40:49.617Z,17.68
2023-05-16T05:45:52.368Z,17.59
2023-05-16T05:50:54.954Z,17.58
2023-05-16T05:55:57.451Z,17.60
2023-05-16T06:01:00.042Z,17.91
2023-05-16T06:06:03.947Z,18.10
2023-05-16T06:11:07.399Z,18.31
2023-05-16T06:16:09.986Z,17.90
2023-05-16T06:21:12.624Z,17.01
2023-05-16T06:26:15.767Z,17.80
2023-05-16T06:31:18.339Z,18.30
2023-05-16T06:36:21.098Z,17.82
2023-05-16T06:41:23.718Z,16.78
2023-05-16T06:46:26.346Z,17.48
2023-05-16T06:51:29.063Z,17.85
2023-05-16T06:56:32.809Z,17.95
2023-05-16T07:01:35.450Z,18.14
2023-05-16T07:06:38.355Z,17.12
2023-05-16T07:11:41.060Z,16.99
2023-05-16T07:16:44.141Z,17.84
2023-05-16T07:21:46.884Z,18.05
2023-05-16T07:26:50.202Z,18.15
2023-05-16T07:31:52.945Z,16.82
2023-05-16T07:36:55.716Z,17.49
2023-05-16T07:41:58.478Z,18.45
2023-05-16T07:47:01.104Z,17.52
2023-05-16T07:52:04.065Z,16.90
2023-05-16T07:57:07.409Z,18.21
2023-05-16T08:02:11.245Z,17.97
2023-05-16T08:07:13.924Z,16.63
2023-05-16T08:12:16.551Z,17.40
2023-05-16T08:17:19.145Z,18.48
2023-05-16T08:22:21.747Z,17.30
2023-05-16T08:27:24.679Z,17.75
2023-05-16T08:32:27.451Z,17.75
2023-05-16T08:37:30.112Z,16.84
2023-05-16T08:42:34.040Z,18.11
2023-05-16T08:47:41.601Z,18.41
2023-05-16T08:52:47.247Z,17.31
2023-05-16T08:57:53.483Z,17.88
2023-05-16T09:02:56.593Z,17.94
2023-05-16T09:08:00.657Z,16.77
2023-05-16T09:13:05.515Z,17.68
2023-05-16T09:18:16.603Z,17.98
2023-05-16T09:23:25.700Z,16.97
2023-05-16T09:28:28.817Z,18.28
2023-05-16T09:33:31.688Z,18.33
2023-05-16T09:38:34.298Z,17.55
2023-05-16T09:43:41.802Z,17.29
2023-05-16T09:48:46.686Z,18.12
2023-05-16T09:53:49.621Z,18.94
2023-05-16T09:58:52.611Z,18.17
2023-05-16T10:03:55.831Z,17.59
2023-05-16T10:09:00.548Z,17.23
2023-05-16T10:14:07.953Z,17.01
2023-05-16T10:19:11.656Z,17.85
2023-05-16T10:24:22.400Z,19.09
2023-05-16T10:29:26.112Z,19.09
2023-05-16T10:34:29.390Z,18.78
2023-05-16T10:39:32.358Z,18.26
2023-05-16T10:44:38.661Z,18.03
2023-05-16T10:49:41.876Z,18.17
2023-05-16T10:54:54.041Z,18.53
2023-05-16T11:00:01.666Z,18.88
2023-05-16T11:05:06.784Z,18.77
2023-05-16T11:10:14.673Z,18.42
2023-05-16T11:15:28.903Z,18.03
2023-05-16T11:20:34.391Z,17.51
2023-05-16T11:25:41.129Z,17.11
2023-05-16T11:30:46.261Z,17.19
2023-05-16T11:41:16.875Z,18.20
2023-05-16T11:46:21.554Z,18.39
2023-05-16T11:51:24.462Z,18.44
2023-05-16T11:56:27.648Z,18.50
2023-05-16T12:01:35.475Z,18.31
2023-05-16T12:06:38.679Z,17.84
2023-05-16T12:11:43.504Z,17.52
2023-05-16T12:16:46.679Z,17.33
2023-05-16T12:21:53.370Z,17.34
2023-05-16T12:26:57.516Z,17.76
2023-05-16T12:32:00.239Z,18.69
2023-05-16T12:37:03.101Z,19.40
2023-05-16T12:42:07.346Z,19.60
2023-05-16T12:47:14.402Z,19.57
2023-05-16T12:52:21.500Z,19.54
2023-05-16T12:57:24.143Z,19.91
2023-05-16T13:02:26.863Z,20.41
2023-05-16T13:07:30.698Z,20.65
2023-05-16T13:12:33.622Z,20.49
2023-05-16T13:17:37.486Z,20.04
2023-05-16T13:22:44.832Z,19.65
2023-05-16T13:27:49.489Z,19.91
2023-05-16T13:32:52.780Z,20.45
2023-05-16T13:37:56.029Z,21.19
2023-05-16T13:42:58.809Z,21.53
2023-05-16T13:48:01.806Z,21.32
2023-05-16T13:53:04.498Z,20.72
2023-05-16T13:58:07.137Z,20.08
2023-05-16T14:03:09.910Z,19.81
2023-05-16T14:08:14.375Z,19.53
2023-05-16T14:13:17.045Z,19.10
2023-05-16T14:18:20.012Z,18.67
2023-05-16T14:23:25.909Z,18.27
2023-05-16T14:28:28.726Z,17.99
2023-05-16T14:33:32.940Z,17.90
2023-05-16T14:38:36.055Z,17.89
2023-05-16T14:43:38.965Z,17.90
2023-05-16T14:48:41.645Z,18.03
2023-05-16T14:53:46.617Z,18.39
2023-05-16T14:58:49.805Z,18.69
2023-05-16T15:03:55.974Z,18.96
2023-05-16T15:08:59.110Z,19.45
2023-05-16T15:14:02.017Z,19.98
2023-05-16T15:19:04.851Z,20.96
2023-05-16T15:24:08.296Z,21.86
2023-05-16T15:29:11.443Z,22.02
2023-05-16T15:34:14.157Z,22.27
2023-05-16T15:39:16.795Z,22.45
2023-05-16T15:44:19.374Z,22.27
2023-05-16T15:49:22.160Z,22.88
2023-05-16T15:54:24.781Z,24.17
2023-05-16T15:59:27.440Z,24.59
2023-05-16T16:04:30.059Z,24.04
2023-05-16T16:09:32.690Z,24.17
2023-05-16T16:14:35.301Z,24.52
2023-05-16T16:19:37.935Z,24.44
2023-05-16T16:24:40.923Z,23.43
2023-05-16T16:29:43.553Z,22.36
2023-05-16T16:34:46.128Z,21.67
2023-05-16T16:39:48.749Z,20.98
2023-05-16T16:44:55.327Z,20.28
2023-05-16T16:49:58.651Z,19.61
2023-05-16T16:55:01.391Z,19.04
2023-05-16T17:00:07.306Z,18.65
2023-05-16T17:05:10.533Z,18.31
2023-05-16T17:10:13.205Z,18.01
2023-05-16T17:15:17.495Z,17.65
2023-05-16T17:20:20.264Z,17.34
2023-05-16T17:25:23.096Z,17.09
2023-05-16T17:30:26.278Z,17.92
2023-05-16T17:35:29.358Z,18.89
2023-05-16T17:40:32.661Z,17.94
2023-05-16T17:45:35.390Z,17.22
2023-05-16T17:50:38.040Z,17.89
2023-05-16T17:55:40.728Z,18.77
2023-05-16T18:00:48.488Z,17.61
2023-05-16T18:05:51.802Z,18.09
2023-05-16T18:10:55.685Z,18.53
2023-05-16T18:15:58.376Z,17.30
2023-05-16T18:21:01.115Z,17.99
2023-05-16T18:26:03.840Z,17.82
2023-05-16T18:31:06.933Z,17.17
2023-05-16T18:36:10.408Z,18.43
2023-05-16T18:41:13.079Z,18.37
2023-05-16T18:46:15.672Z,16.98
2023-05-16T18:51:18.618Z,17.75
2023-05-16T18:56:22.438Z,17.97
2023-05-16T19:01:25.574Z,16.78
2023-05-16T19:06:28.340Z,17.69
2023-05-16T19:11:30.991Z,17.95
2023-05-16T19:16:34.243Z,16.72
2023-05-16T19:21:38.022Z,17.66
2023-05-16T19:26:40.773Z,17.70
2023-05-16T19:31:43.420Z,16.29
2023-05-16T19:36:46.858Z,17.10
2023-05-16T19:41:52.296Z,17.94
2023-05-16T19:46:55.073Z,16.80
2023-05-16T19:51:57.854Z,16.19
2023-05-16T19:57:00.541Z,17.43
2023-05-16T20:02:04.325Z,17.20
2023-05-16T20:07:07.512Z,16.17
2023-05-16T20:12:10.237Z,17.14
2023-05-16T20:17:12.939Z,17.56
2023-05-16T20:22:15.745Z,16.19
2023-05-16T20:27:18.380Z,16.76
2023-05-16T20:32:21.318Z,16.76
2023-05-16T20:37:26.839Z,15.72
2023-05-16T20:42:29.671Z,16.79
2023-05-16T20:47:32.338Z,17.32
2023-05-16T20:52:34.980Z,15.91
2023-05-16T20:57:37.623Z,16.56
2023-05-16T21:02:42.892Z,17.29
2023-05-16T21:07:46.729Z,16.35
2023-05-16T21:12:51.262Z,15.37
2023-05-16T21:17:53.916Z,16.32
2023-05-16T21:22:57.274Z,15.80
2023-05-16T21:28:00.540Z,15.19
2023-05-16T21:33:03.286Z,16.26
2023-05-16T21:38:06.349Z,15.87
2023-05-16T21:43:08.983Z,14.81
2023-05-16T21:48:12.042Z,15.98
2023-05-16T21:53:14.803Z,15.98
2023-05-16T21:58:19.159Z,14.58
2023-05-16T22:03:24.486Z,15.53
2023-05-16T22:08:27.142Z,16.49
2023-05-16T22:13:29.753Z,15.64
2023-05-16T22:18:33.368Z,14.21
2023-05-16T22:23:36.402Z,14.46
2023-05-16T22:28:39.018Z,15.84
2023-05-16T22:33:41.753Z,15.95
2023-05-16T22:38:44.471Z,14.51
2023-05-16T22:43:47.141Z,14.16
2023-05-16T22:48:49.849Z,15.64
2023-05-16T22:53:52.467Z,15.91
2023-05-16T22:58:55.173Z,14.41
2023-05-16T23:03:57.862Z,13.33
2023-05-16T23:09:00.781Z,12.97
2023-05-16T23:14:03.378Z,14.49
2023-05-16T23:19:09.124Z,13.81
2023-05-16T23:24:12.174Z,12.41
2023-05-16T23:29:14.768Z,12.46
2023-05-16T23:34:17.358Z,14.13
2023-05-16T23:39:21.373Z,15.18
2023-05-16T23:44:23.952Z,15.78
2023-05-16T23:49:26.724Z,15.94
2023-05-16T23:54:29.531Z,14.33
2023-05-16T23:59:32.125Z,13.90
